ロサンゼルス の空港の天気 - METARとTAF

ロサンゼルス国際空港 ( KLAX / LAX ) - アメリカ カリフォルニア州ロサンゼルス
飛行場実況気象(Metar)
観測時間06/18 13:53 PDT (06/18 20:53 UTC)
風向・風速西 7m/s 瞬間風速10m/s
視程10km以上
天気現象
少しの雲 雲底高度 520m
少しの雲 雲底高度 1370m
全天の4割程度の雲 雲底高度 4270m
気温20.6℃
湿度61%
気圧1016hPa
METARKLAX 182053Z 26014G20KT 10SM FEW017 FEW045 SCT140 21/13 A3001 RMK AO2 SLP160 T02060128 58006
過去の天気等 Google飛行場航空写真 Wunderground天気予報

過去48時間のMETAR

飛行場予報(TAF)
発表時間: 6/18 13:49 PDT (6/18 20:49 UTC)
予報対象時間: 18日14時 PDT ~ 19日17時 PDT
風向・風速西南西 8m/s
視程10km以上
少しの雲 雲底高度 700m
18日21時 PDT から
風向・風速西 3m/s
視程10km以上
なし
19日2時 PDT から
風向・風速南東 3m/s
視程10km以上
天気現象もや
全天の8割程度の雲 雲底高度 300m
19日9時 PDT から
風向・風速西 3m/s
視程10km以上
全天の8割程度の雲 雲底高度 370m
KLAX 182049Z 1821/1924 24015KT P6SM FEW023
FM190400 26006KT P6SM SKC
FM190900 13005KT 6SM BR BKN010
FM191600 26006KT P6SM BKN012